Time;durP1;ratioP1;P1;durP2;ratioP2;P2;SDS_P1;SDS_P2;PMS_P1;PMS_P2;Temp;Humidity;BMP_temperature;BMP_pressure;BME280_temperature;BME280_humidity;BME280_pressure;Samples;Min_cycle;Max_cycle;Signal;HPM_P1;HPM_P2
2021/06/08 00:01:41;;;;;;;;;;;18.00;82.60;;;;;;5111569;28;19923;-63
2021/06/08 00:04:07;;;;;;;;;;;17.90;82.50;;;;;;5110952;28;20000;-63
2021/06/08 00:06:32;;;;;;;;;;;17.90;82.50;;;;;;5093319;28;19923;-62
2021/06/08 00:08:58;;;;;;;;;;;17.90;82.40;;;;;;5111298;28;19939;-63
2021/06/08 00:11:23;;;;;;;;;;;17.90;82.40;;;;;;5076057;28;19915;-62
2021/06/08 00:13:50;;;;;;;;;;;17.90;82.30;;;;;;5111364;28;19916;-62
2021/06/08 00:16:16;;;;;;;;;;;17.90;82.30;;;;;;5092676;28;20285;-62
2021/06/08 00:18:42;;;;;;;;;;;17.80;82.20;;;;;;5111404;28;19920;-63
2021/06/08 00:21:07;;;;;;;;;;;17.80;82.20;;;;;;5093366;28;20009;-63
2021/06/08 00:23:33;;;;;;;;;;;17.80;82.20;;;;;;5114331;28;20014;-63
2021/06/08 00:25:59;;;;;;;;;;;17.80;82.20;;;;;;5096091;28;20382;-63
2021/06/08 00:28:24;;;;;;;;;;;17.80;82.20;;;;;;5114578;28;19916;-62
2021/06/08 00:30:50;;;;;;;;;;;17.80;82.20;;;;;;5096540;28;19927;-63
2021/06/08 00:33:15;;;;;;;;;;;17.70;82.00;;;;;;5114967;28;19915;-62
2021/06/08 00:35:41;;;;;;;;;;;17.70;82.00;;;;;;5096446;28;19915;-65
2021/06/08 00:38:06;;;;;;;;;;;17.70;81.90;;;;;;5114900;28;19951;-62
2021/06/08 00:40:32;;;;;;;;;;;17.70;81.90;;;;;;5114997;28;19916;-62
2021/06/08 00:42:58;;;;;;;;;;;17.70;82.00;;;;;;5096180;28;19944;-63
2021/06/08 00:45:23;;;;;;;;;;;17.70;82.00;;;;;;5096771;28;20459;-63
2021/06/08 00:47:49;;;;;;;;;;;17.70;81.90;;;;;;5114587;28;20367;-63
2021/06/08 00:50:15;;;;;;;;;;;17.70;81.80;;;;;;5096493;28;19969;-62
2021/06/08 00:52:41;;;;;;;;;;;17.70;81.70;;;;;;5114976;28;19951;-63
2021/06/08 00:55:10;;;;;;;;;;;17.70;81.70;;;;;;5114633;28;19915;-60
2021/06/08 00:57:35;;;;;;;;;;;17.60;81.60;;;;;;5114156;28;20383;-63
2021/06/08 01:00:02;;;;;;;;;;;17.60;81.50;;;;;;5114636;28;19994;-63
2021/06/08 01:02:27;;;;;;;;;;;17.60;81.50;;;;;;5113825;28;20390;-63
2021/06/08 01:04:53;;;;;;;;;;;17.60;81.50;;;;;;5095979;28;19912;-61
2021/06/08 01:07:18;;;;;;;;;;;17.60;81.60;;;;;;5096389;28;19923;-61
2021/06/08 01:09:44;;;;;;;;;;;17.60;82.10;;;;;;5114039;28;19912;-63
2021/06/08 01:12:09;;;;;;;;;;;17.60;81.60;;;;;;5079333;28;19923;-63
2021/06/08 01:14:35;;;;;;;;;;;17.60;81.50;;;;;;5095957;28;19915;-62
2021/06/08 01:17:00;;;;;;;;;;;17.60;81.50;;;;;;5113644;28;20007;-61
2021/06/08 01:19:26;;;;;;;;;;;17.60;81.50;;;;;;5114341;28;19921;-63
2021/06/08 01:21:51;;;;;;;;;;;17.60;81.50;;;;;;5113731;28;20282;-61
2021/06/08 01:24:17;;;;;;;;;;;17.70;81.50;;;;;;5095795;28;19919;-63
2021/06/08 01:26:43;;;;;;;;;;;17.60;81.50;;;;;;5095777;28;19965;-61
2021/06/08 01:29:09;;;;;;;;;;;17.60;81.50;;;;;;5113755;28;19916;-61
2021/06/08 01:31:35;;;;;;;;;;;17.60;81.50;;;;;;5079031;28;19928;-61
2021/06/08 01:34:02;;;;;;;;;;;17.70;81.50;;;;;;5112714;28;19923;-61
2021/06/08 01:36:29;;;;;;;;;;;17.70;81.50;;;;;;5113589;28;19926;-61
2021/06/08 01:38:55;;;;;;;;;;;17.70;81.50;;;;;;5113881;28;19916;-61
2021/06/08 01:41:25;;;;;;;;;;;17.60;81.40;;;;;;5113054;28;20287;-62
2021/06/08 01:43:51;;;;;;;;;;;17.60;81.40;;;;;;5113617;28;19915;-61
2021/06/08 01:46:17;;;;;;;;;;;17.60;81.30;;;;;;5094961;28;19912;-65
2021/06/08 01:48:43;;;;;;;;;;;17.60;81.30;;;;;;5095437;28;19926;-63
2021/06/08 01:51:15;;;;;;;;;;;17.60;81.40;;;;;;5113832;28;19915;-63
2021/06/08 01:54:04;;;;;;;;;;;17.60;81.50;;;;;;5112949;27;19915;-63
2021/06/08 01:56:30;;;;;;;;;;;17.60;81.50;;;;;;5088956;28;19924;-64
2021/06/08 01:59:16;;;;;;;;;;;17.70;81.50;;;;;;5112920;28;19916;-62
2021/06/08 02:02:05;;;;;;;;;;;17.60;81.40;;;;;;5086573;28;19920;-66
2021/06/08 02:04:41;;;;;;;;;;;17.60;81.40;;;;;;5107417;28;19938;-63
2021/06/08 02:07:11;;;;;;;;;;;17.60;81.40;;;;;;5112772;28;19998;-62
2021/06/08 02:09:55;;;;;;;;;;;17.60;81.40;;;;;;5113317;28;19916;-62
2021/06/08 02:12:21;;;;;;;;;;;17.60;81.40;;;;;;5094804;28;20294;-63
2021/06/08 02:15:06;;;;;;;;;;;17.60;81.40;;;;;;5094928;28;19916;-61
2021/06/08 02:17:43;;;;;;;;;;;17.60;81.50;;;;;;5112114;28;19923;-61
2021/06/08 02:20:18;;;;;;;;;;;17.60;81.50;;;;;;5112744;28;19998;-61
2021/06/08 02:22:45;;;;;;;;;;;17.60;81.50;;;;;;5113099;28;19916;-63
2021/06/08 02:25:11;;;;;;;;;;;17.60;81.50;;;;;;5112915;28;20436;-62
2021/06/08 02:27:37;;;;;;;;;;;17.60;81.50;;;;;;5094285;28;20006;-62
2021/06/08 02:30:03;;;;;;;;;;;17.60;81.50;;;;;;5112984;28;20402;-63
2021/06/08 02:32:29;;;;;;;;;;;17.50;81.50;;;;;;5112816;28;20003;-62
2021/06/08 02:34:55;;;;;;;;;;;17.50;81.60;;;;;;5112134;28;19926;-63
2021/06/08 02:37:20;;;;;;;;;;;17.50;81.60;;;;;;5094307;28;20010;-63
2021/06/08 02:39:46;;;;;;;;;;;17.50;81.70;;;;;;5093967;28;19922;-62
2021/06/08 02:42:13;;;;;;;;;;;17.50;81.70;;;;;;5112687;28;19916;-63
2021/06/08 02:44:39;;;;;;;;;;;17.60;81.80;;;;;;5094207;28;19988;-62
2021/06/08 02:47:05;;;;;;;;;;;17.50;81.80;;;;;;5112067;28;19927;-63
2021/06/08 03:34:38;;;;;;;;;;;17.30;82.50;;;;;;5110691;28;19981;-66
2021/06/08 03:37:05;;;;;;;;;;;17.30;82.40;;;;;;5111705;28;19923;-65
2021/06/08 03:39:31;;;;;;;;;;;17.30;82.50;;;;;;5111602;28;20061;-65
2021/06/08 03:41:57;;;;;;;;;;;17.30;82.60;;;;;;5093806;28;19916;-66
2021/06/08 03:44:23;;;;;;;;;;;17.30;82.60;;;;;;5093366;28;19998;-65
2021/06/08 03:46:50;;;;;;;;;;;17.40;82.60;;;;;;5111055;28;20053;-65
2021/06/08 03:49:16;;;;;;;;;;;17.40;82.60;;;;;;5077266;28;19916;-64
2021/06/08 03:51:42;;;;;;;;;;;17.40;82.60;;;;;;5092922;28;19974;-64
2021/06/08 03:54:10;;;;;;;;;;;17.40;82.60;;;;;;5110878;28;19923;-64
2021/06/08 03:56:36;;;;;;;;;;;17.40;82.70;;;;;;5111809;28;19920;-64
2021/06/08 03:59:02;;;;;;;;;;;17.40;82.70;;;;;;5115365;28;20376;-64
2021/06/08 04:01:28;;;;;;;;;;;17.40;82.60;;;;;;5115528;28;19922;-64
2021/06/08 04:03:54;;;;;;;;;;;17.40;82.60;;;;;;5114855;28;19940;-64
2021/06/08 04:06:20;;;;;;;;;;;17.50;82.70;;;;;;5114940;28;19955;-64
2021/06/08 04:08:46;;;;;;;;;;;17.50;82.50;;;;;;5115565;28;19916;-64
2021/06/08 04:11:13;;;;;;;;;;;17.50;82.50;;;;;;5097135;28;19916;-64
2021/06/08 04:13:40;;;;;;;;;;;17.50;82.60;;;;;;5105454;28;19994;-64
2021/06/08 04:16:06;;;;;;;;;;;17.50;82.50;;;;;;5113685;28;19915;-64
2021/06/08 04:18:32;;;;;;;;;;;17.60;82.60;;;;;;5094751;28;19968;-64
2021/06/08 04:20:59;;;;;;;;;;;17.60;82.60;;;;;;5112497;28;19922;-64
2021/06/08 04:23:25;;;;;;;;;;;17.60;82.60;;;;;;5093614;28;20382;-65
2021/06/08 04:25:51;;;;;;;;;;;17.60;82.50;;;;;;5094210;28;20202;-65
2021/06/08 04:28:20;;;;;;;;;;;17.70;82.40;;;;;;5094640;28;19916;-64
2021/06/08 04:30:46;;;;;;;;;;;17.70;82.40;;;;;;5094314;28;19924;-65
2021/06/08 04:33:12;;;;;;;;;;;17.70;82.10;;;;;;5076393;28;19916;-65
2021/06/08 04:35:38;;;;;;;;;;;17.80;82.30;;;;;;5094350;28;19939;-65
2021/06/08 04:38:03;;;;;;;;;;;17.80;82.30;;;;;;5076237;28;20380;-65
2021/06/08 04:40:29;;;;;;;;;;;17.90;82.20;;;;;;5094628;28;20371;-65
2021/06/08 04:42:55;;;;;;;;;;;17.90;81.80;;;;;;5093781;28;19916;-65
2021/06/08 04:45:21;;;;;;;;;;;17.90;81.80;;;;;;5094332;28;20412;-65
2021/06/08 04:47:46;;;;;;;;;;;18.00;81.90;;;;;;5093017;28;20384;-65
2021/06/08 04:50:13;;;;;;;;;;;18.00;81.80;;;;;;5089306;28;19977;-64
2021/06/08 04:52:39;;;;;;;;;;;18.10;81.60;;;;;;5085354;28;20371;-65
2021/06/08 04:55:09;;;;;;;;;;;18.10;81.50;;;;;;5101268;28;19926;-65
2021/06/08 04:57:35;;;;;;;;;;;18.20;81.60;;;;;;5102926;28;19927;-66
2021/06/08 05:00:06;;;;;;;;;;;18.30;81.60;;;;;;5100702;28;19916;-66
2021/06/08 05:02:41;;;;;;;;;;;18.50;81.60;;;;;;5111094;28;19920;-65
2021/06/08 05:05:08;;;;;;;;;;;18.60;81.10;;;;;;5090191;28;19922;-65
2021/06/08 05:07:35;;;;;;;;;;;18.70;80.60;;;;;;5084351;28;19916;-65
2021/06/08 05:10:02;;;;;;;;;;;18.70;80.40;;;;;;5099927;28;20011;-65
2021/06/08 05:12:28;;;;;;;;;;;18.70;80.20;;;;;;5110186;28;19916;-62
2021/06/08 05:14:55;;;;;;;;;;;18.80;80.10;;;;;;5095684;28;19945;-63
2021/06/08 05:17:23;;;;;;;;;;;18.80;79.70;;;;;;5062043;28;20355;-62
2021/06/08 05:19:49;;;;;;;;;;;18.80;79.60;;;;;;5075035;28;19922;-63
2021/06/08 05:22:18;;;;;;;;;;;18.90;79.60;;;;;;5095918;28;20392;-63
2021/06/08 05:24:46;;;;;;;;;;;19.00;79.40;;;;;;5109363;28;19944;-63
2021/06/08 05:27:12;;;;;;;;;;;19.10;79.10;;;;;;5093160;28;20011;-63
2021/06/08 05:29:38;;;;;;;;;;;19.20;78.90;;;;;;5077448;28;19963;-61
2021/06/08 05:32:04;;;;;;;;;;;19.20;78.60;;;;;;5095099;28;19958;-61
2021/06/08 05:34:29;;;;;;;;;;;19.30;78.40;;;;;;5088488;28;19955;-60
2021/06/08 05:36:55;;;;;;;;;;;19.40;78.10;;;;;;5093950;28;20339;-60
2021/06/08 05:39:20;;;;;;;;;;;19.40;78.00;;;;;;5079257;28;20306;-61
2021/06/08 05:41:46;;;;;;;;;;;19.40;77.50;;;;;;5112593;28;19916;-63
2021/06/08 05:44:14;;;;;;;;;;;19.50;77.40;;;;;;5111750;28;19980;-63
2021/06/08 05:46:40;;;;;;;;;;;19.50;77.30;;;;;;5094856;28;19916;-63
2021/06/08 05:49:07;;;;;;;;;;;19.50;77.20;;;;;;5095325;28;19923;-63
2021/06/08 05:51:33;;;;;;;;;;;19.60;77.20;;;;;;5094140;28;20148;-64
2021/06/08 05:53:59;;;;;;;;;;;19.70;77.10;;;;;;5094877;28;20014;-64
2021/06/08 05:56:25;;;;;;;;;;;19.80;76.80;;;;;;5113185;28;19922;-64
2021/06/08 05:58:54;;;;;;;;;;;19.90;76.80;;;;;;5094787;28;19911;-64
2021/06/08 06:01:21;;;;;;;;;;;20.00;76.70;;;;;;5113297;28;19961;-64
2021/06/08 06:03:47;;;;;;;;;;;20.20;76.50;;;;;;5094729;28;19916;-64
2021/06/08 06:06:12;;;;;;;;;;;20.30;76.30;;;;;;5113083;28;19922;-64
2021/06/08 06:08:38;;;;;;;;;;;20.50;75.80;;;;;;5094710;28;19919;-64
2021/06/08 06:11:05;;;;;;;;;;;20.60;74.90;;;;;;5103510;28;19930;-63
2021/06/08 06:13:38;;;;;;;;;;;20.70;74.50;;;;;;5092377;28;19942;-63
2021/06/08 06:16:04;;;;;;;;;;;20.70;74.10;;;;;;5100123;28;19930;-63
2021/06/08 06:18:30;;;;;;;;;;;20.70;73.90;;;;;;5103203;28;19923;-63
2021/06/08 06:20:56;;;;;;;;;;;20.70;73.70;;;;;;5082741;28;20291;-64
2021/06/08 06:23:22;;;;;;;;;;;20.70;73.60;;;;;;5083646;28;20280;-63
2021/06/08 06:25:51;;;;;;;;;;;20.90;73.60;;;;;;5102821;28;19924;-63
2021/06/08 06:28:17;;;;;;;;;;;20.90;72.90;;;;;;5100763;28;19916;-65
2021/06/08 06:30:43;;;;;;;;;;;20.90;72.50;;;;;;5084063;28;19915;-65
2021/06/08 06:33:09;;;;;;;;;;;21.10;72.80;;;;;;5105314;28;20414;-65
2021/06/08 06:35:35;;;;;;;;;;;21.10;72.30;;;;;;5112189;28;19916;-64
2021/06/08 06:38:05;;;;;;;;;;;21.10;71.90;;;;;;5094313;28;20136;-65
2021/06/08 06:40:33;;;;;;;;;;;21.00;71.70;;;;;;5093947;28;19924;-64
2021/06/08 06:43:02;;;;;;;;;;;21.00;71.60;;;;;;5112376;28;20307;-65
2021/06/08 06:45:28;;;;;;;;;;;21.00;71.50;;;;;;5094365;28;19916;-65
2021/06/08 06:48:02;;;;;;;;;;;21.00;71.40;;;;;;5093649;28;19920;-65
2021/06/08 06:50:31;;;;;;;;;;;21.10;71.30;;;;;;5094572;28;20336;-65
2021/06/08 06:52:57;;;;;;;;;;;21.20;71.10;;;;;;5093530;28;19916;-64
2021/06/08 06:55:24;;;;;;;;;;;21.30;70.90;;;;;;5094141;28;19922;-65
2021/06/08 06:57:49;;;;;;;;;;;21.30;70.80;;;;;;5077071;28;20298;-65
2021/06/08 07:00:31;;;;;;;;;;;21.50;71.10;;;;;;5077014;28;24310;-65
2021/06/08 07:02:58;;;;;;;;;;;21.60;70.80;;;;;;5093412;28;20003;-65
2021/06/08 07:05:25;;;;;;;;;;;21.80;70.60;;;;;;5093543;28;19923;-65
2021/06/08 07:07:52;;;;;;;;;;;22.00;70.00;;;;;;5111967;28;19920;-66
2021/06/08 07:10:19;;;;;;;;;;;22.10;69.70;;;;;;5093994;28;19912;-65
2021/06/08 07:12:46;;;;;;;;;;;22.20;68.90;;;;;;5111543;28;20299;-65
2021/06/08 07:15:13;;;;;;;;;;;22.20;68.90;;;;;;5112032;28;19916;-65
2021/06/08 07:17:38;;;;;;;;;;;22.30;68.80;;;;;;5111292;28;20372;-65
2021/06/08 07:20:05;;;;;;;;;;;22.40;68.50;;;;;;5112142;28;19964;-64
2021/06/08 07:22:32;;;;;;;;;;;22.40;68.30;;;;;;5093725;28;19968;-65
2021/06/08 07:24:58;;;;;;;;;;;22.50;68.30;;;;;;5093034;28;19916;-64
2021/06/08 07:27:24;;;;;;;;;;;22.40;67.80;;;;;;5111804;28;19916;-65
2021/06/08 07:29:50;;;;;;;;;;;22.50;67.60;;;;;;5111386;28;20291;-64
2021/06/08 07:32:21;;;;;;;;;;;22.40;67.60;;;;;;5076151;28;20004;-65
2021/06/08 07:34:56;;;;;;;;;;;22.40;67.90;;;;;;5111617;28;19938;-64
2021/06/08 07:37:23;;;;;;;;;;;22.60;67.90;;;;;;5093188;28;19920;-65
2021/06/08 07:39:51;;;;;;;;;;;22.70;67.60;;;;;;5111717;28;19916;-64
2021/06/08 07:42:37;;;;;;;;;;;23.00;67.80;;;;;;5111187;28;20022;-64
2021/06/08 07:45:04;;;;;;;;;;;23.30;67.60;;;;;;5111116;28;20131;-64
2021/06/08 07:47:31;;;;;;;;;;;23.60;67.10;;;;;;5110858;28;19919;-64
2021/06/08 07:49:57;;;;;;;;;;;23.70;66.30;;;;;;5093456;28;19923;-64
2021/06/08 07:52:24;;;;;;;;;;;23.90;66.20;;;;;;5092957;28;19969;-64
2021/06/08 07:54:50;;;;;;;;;;;24.20;65.70;;;;;;5111236;28;20015;-66
2021/06/08 07:57:17;;;;;;;;;;;25.20;68.20;;;;;;5111538;28;19920;-66
2021/06/08 07:59:43;;;;;;;;;;;26.00;66.10;;;;;;5111218;28;20019;-65
2021/06/08 08:02:10;;;;;;;;;;;26.40;64.00;;;;;;5111595;28;19919;-65
2021/06/08 08:04:39;;;;;;;;;;;26.60;62.60;;;;;;5093036;28;19915;-65
2021/06/08 08:07:06;;;;;;;;;;;26.70;61.50;;;;;;5111349;28;20368;-65
2021/06/08 08:09:32;;;;;;;;;;;26.80;60.50;;;;;;5093387;28;19916;-66
2021/06/08 08:11:58;;;;;;;;;;;26.90;59.80;;;;;;5111125;28;20383;-66
2021/06/08 08:14:25;;;;;;;;;;;26.90;59.10;;;;;;5111062;28;19922;-65
2021/06/08 08:16:51;;;;;;;;;;;27.00;58.80;;;;;;5111161;28;20337;-68
2021/06/08 08:19:18;;;;;;;;;;;27.10;58.40;;;;;;5092801;28;19923;-67
2021/06/08 08:21:45;;;;;;;;;;;27.10;57.80;;;;;;5076390;28;20291;-68
2021/06/08 08:24:11;;;;;;;;;;;27.20;57.20;;;;;;5092306;28;19927;-67
2021/06/08 08:26:36;;;;;;;;;;;27.50;57.50;;;;;;5093073;28;19915;-67
2021/06/08 08:29:03;;;;;;;;;;;27.80;57.40;;;;;;5093048;28;19994;-67
2021/06/08 08:31:29;;;;;;;;;;;28.50;57.40;;;;;;5092924;28;19915;-68
2021/06/08 08:33:56;;;;;;;;;;;29.40;57.50;;;;;;5110994;28;19923;-67
2021/06/08 08:36:22;;;;;;;;;;;30.00;54.80;;;;;;5111167;28;19915;-68
2021/06/08 08:38:47;;;;;;;;;;;30.00;52.80;;;;;;5092386;28;19942;-68
2021/06/08 08:41:13;;;;;;;;;;;29.80;52.20;;;;;;5111167;28;19923;-68
2021/06/08 08:43:40;;;;;;;;;;;29.70;51.70;;;;;;5094223;28;20343;-68
2021/06/08 08:46:06;;;;;;;;;;;29.40;50.80;;;;;;5114962;28;19942;-68
2021/06/08 08:48:32;;;;;;;;;;;29.00;50.50;;;;;;5096193;28;19919;-67
2021/06/08 08:50:58;;;;;;;;;;;28.50;50.40;;;;;;5114146;28;19941;-68
2021/06/08 08:53:23;;;;;;;;;;;28.20;50.10;;;;;;5096165;28;20391;-66
2021/06/08 08:55:49;;;;;;;;;;;28.00;50.80;;;;;;5114392;28;19961;-67
2021/06/08 08:58:15;;;;;;;;;;;28.10;51.50;;;;;;5114538;28;19927;-67
2021/06/08 09:00:45;;;;;;;;;;;29.30;54.00;;;;;;5114736;28;19943;-67
2021/06/08 09:03:14;;;;;;;;;;;31.40;54.00;;;;;;5095577;28;19924;-69
2021/06/08 09:05:40;;;;;;;;;;;34.00;52.30;;;;;;5114550;28;20431;-69
2021/06/08 09:08:06;;;;;;;;;;;34.70;47.00;;;;;;5113964;28;19916;-71
2021/06/08 09:10:33;;;;;;;;;;;34.80;44.60;;;;;;5114298;28;19919;-69
2021/06/08 09:12:58;;;;;;;;;;;34.30;43.10;;;;;;5114000;28;19920;-69
2021/06/08 09:15:24;;;;;;;;;;;33.40;41.50;;;;;;5113741;28;20284;-69
2021/06/08 09:17:56;;;;;;;;;;;32.50;41.10;;;;;;5095750;28;19968;-69
2021/06/08 09:20:22;;;;;;;;;;;31.90;41.50;;;;;;5078876;28;20296;-68
2021/06/08 09:22:51;;;;;;;;;;;31.60;42.20;;;;;;5095580;28;19916;-68
2021/06/08 09:25:38;;;;;;;;;;;31.60;42.20;;;;;;5113626;28;19920;-67
2021/06/08 09:28:22;;;;;;;;;;;31.60;42.00;;;;;;5095574;28;20391;-68
2021/06/08 09:30:52;;;;;;;;;;;31.50;41.30;;;;;;5113384;28;20356;-68
2021/06/08 09:33:18;;;;;;;;;;;31.20;41.00;;;;;;5095377;28;20389;-67
2021/06/08 09:35:48;;;;;;;;;;;30.90;41.10;;;;;;5113558;28;19998;-68
2021/06/08 09:38:13;;;;;;;;;;;30.70;41.30;;;;;;5095465;28;19924;-68
2021/06/08 09:40:41;;;;;;;;;;;30.80;41.90;;;;;;5095596;28;19990;-69
2021/06/08 09:43:10;;;;;;;;;;;31.10;42.10;;;;;;5077879;28;19950;-65
2021/06/08 09:45:44;;;;;;;;;;;32.10;42.90;;;;;;5113817;28;19947;-65
2021/06/08 09:48:10;;;;;;;;;;;33.00;42.20;;;;;;5122339;22;19928;-67
2021/06/08 09:50:40;;;;;;;;;;;34.20;41.30;;;;;;5071580;28;19923;-68
2021/06/08 09:53:25;;;;;;;;;;;35.90;41.10;;;;;;5072433;28;19940;-69
2021/06/08 09:56:02;;;;;;;;;;;36.60;38.00;;;;;;5072225;28;20042;-69
2021/06/08 09:58:29;;;;;;;;;;;36.70;36.60;;;;;;5071352;28;19920;-69
2021/06/08 10:01:04;;;;;;;;;;;37.90;36.70;;;;;;5072886;28;19916;-69
2021/06/08 10:03:38;;;;;;;;;;;40.40;36.60;;;;;;5070782;28;19924;-68
2021/06/08 10:06:30;;;;;;;;;;;43.10;34.90;;;;;;5071349;28;20011;-67
2021/06/08 10:08:57;;;;;;;;;;;44.40;32.10;;;;;;5062976;28;19917;-68
2021/06/08 10:11:24;;;;;;;;;;;45.80;30.30;;;;;;5072672;28;20447;-68
2021/06/08 10:13:53;;;;;;;;;;;46.60;29.10;;;;;;5071991;28;20269;-70
2021/06/08 10:16:23;;;;;;;;;;;46.50;28.10;;;;;;5072750;28;20007;-69
2021/06/08 10:18:49;;;;;;;;;;;47.20;27.60;;;;;;5072551;28;19920;-68
2021/06/08 10:21:14;;;;;;;;;;;48.10;27.10;;;;;;5072002;28;20429;-68
2021/06/08 10:23:40;;;;;;;;;;;49.20;26.50;;;;;;5072294;28;19996;-71
2021/06/08 10:26:08;;;;;;;;;;;49.80;25.70;;;;;;5072081;28;19916;-69
2021/06/08 10:28:34;;;;;;;;;;;50.20;25.10;;;;;;5070879;28;19923;-70
2021/06/08 10:31:00;;;;;;;;;;;50.60;24.80;;;;;;5072232;28;19912;-70
2021/06/08 10:33:26;;;;;;;;;;;50.80;24.20;;;;;;5071751;28;20391;-69
2021/06/08 10:35:52;;;;;;;;;;;50.90;23.90;;;;;;5072150;28;19913;-68
2021/06/08 10:38:18;;;;;;;;;;;51.10;23.60;;;;;;5071982;28;20388;-68
2021/06/08 10:40:45;;;;;;;;;;;50.80;23.10;;;;;;5071603;28;19963;-69
2021/06/08 10:43:18;;;;;;;;;;;49.80;22.80;;;;;;5071894;28;19935;-68
2021/06/08 10:45:44;;;;;;;;;;;49.50;22.50;;;;;;5053594;28;19930;-68
2021/06/08 10:48:19;;;;;;;;;;;48.90;22.20;;;;;;5071835;28;19942;-68
2021/06/08 10:50:47;;;;;;;;;;;49.30;22.90;;;;;;5071387;28;19923;-69
2021/06/08 10:53:32;;;;;;;;;;;50.30;23.10;;;;;;5071340;28;20006;-68
2021/06/08 10:55:59;;;;;;;;;;;51.30;22.90;;;;;;5071372;28;19925;-69
2021/06/08 10:58:54;;;;;;;;;;;52.10;22.50;;;;;;5071594;28;20288;-68
2021/06/08 11:01:41;;;;;;;;;;;52.40;22.30;;;;;;5053961;28;19925;-68
2021/06/08 11:04:11;;;;;;;;;;;52.40;22.00;;;;;;5069355;28;19916;-68
2021/06/08 11:06:36;;;;;;;;;;;50.60;21.10;;;;;;5070703;28;20015;-66
2021/06/08 11:09:15;;;;;;;;;;;46.60;21.30;;;;;;5071003;28;19991;-67
2021/06/08 11:11:42;;;;;;;;;;;42.70;22.30;;;;;;5069284;28;20011;-67
2021/06/08 11:14:07;;;;;;;;;;;39.20;23.50;;;;;;5069861;28;19920;-67
2021/06/08 11:16:34;;;;;;;;;;;37.20;25.00;;;;;;5070426;28;19935;-67
2021/06/08 11:19:00;;;;;;;;;;;38.00;27.00;;;;;;5071095;28;19916;-68
2021/06/08 11:21:27;;;;;;;;;;;40.90;27.00;;;;;;5071547;28;20269;-67
2021/06/08 11:23:54;;;;;;;;;;;43.80;26.20;;;;;;5070955;28;19924;-68
2021/06/08 11:26:40;;;;;;;;;;;45.90;24.90;;;;;;5070228;28;19916;-67
2021/06/08 11:29:05;;;;;;;;;;;47.10;23.80;;;;;;5068163;28;19952;-68
2021/06/08 11:31:48;;;;;;;;;;;46.80;23.50;;;;;;5071337;28;20340;-69
2021/06/08 11:34:14;;;;;;;;;;;46.20;22.70;;;;;;5070834;28;21032;-67
2021/06/08 11:36:40;;;;;;;;;;;44.00;22.80;;;;;;5071397;28;19964;-69
2021/06/08 11:39:24;;;;;;;;;;;41.50;23.20;;;;;;5070862;28;20408;-69
2021/06/08 11:42:03;;;;;;;;;;;39.00;24.10;;;;;;5071472;28;19966;-68
2021/06/08 11:44:29;;;;;;;;;;;36.70;25.20;;;;;;5069853;28;20157;-68
2021/06/08 11:46:56;;;;;;;;;;;34.70;26.10;;;;;;5067631;28;20003;-68
2021/06/08 11:49:23;;;;;;;;;;;33.20;27.00;;;;;;5066649;28;19964;-69
2021/06/08 11:51:54;;;;;;;;;;;32.90;28.30;;;;;;5068720;28;19917;-69
2021/06/08 11:54:25;;;;;;;;;;;33.80;29.00;;;;;;5067602;28;19970;-68
2021/06/08 11:56:55;;;;;;;;;;;35.10;29.00;;;;;;5068413;28;19920;-69
2021/06/08 11:59:22;;;;;;;;;;;35.60;28.30;;;;;;5068802;28;19916;-66
2021/06/08 12:01:49;;;;;;;;;;;35.80;28.30;;;;;;5069271;28;20418;-67
2021/06/08 12:04:15;;;;;;;;;;;35.20;27.80;;;;;;5051622;28;20489;-68
2021/06/08 12:07:03;;;;;;;;;;;34.30;28.00;;;;;;5067978;28;19917;-66
2021/06/08 12:09:30;;;;;;;;;;;33.50;28.50;;;;;;5070028;28;19916;-69
2021/06/08 12:11:57;;;;;;;;;;;33.30;29.50;;;;;;5069524;28;20003;-68
2021/06/08 12:14:25;;;;;;;;;;;33.20;29.80;;;;;;5068265;28;19917;-69
2021/06/08 12:16:58;;;;;;;;;;;32.90;29.70;;;;;;5068438;28;20485;-67
2021/06/08 12:19:29;;;;;;;;;;;32.60;30.10;;;;;;5072663;28;19952;-68
2021/06/08 12:21:55;;;;;;;;;;;32.30;30.40;;;;;;5073555;28;19925;-68
2021/06/08 12:24:21;;;;;;;;;;;32.10;31.10;;;;;;5072922;28;20376;-67
2021/06/08 12:26:58;;;;;;;;;;;32.20;31.20;;;;;;5073434;28;19996;-68
2021/06/08 12:29:24;;;;;;;;;;;32.10;30.50;;;;;;5076087;28;19921;-68
2021/06/08 12:31:50;;;;;;;;;;;31.90;30.40;;;;;;5073399;28;19919;-67
2021/06/08 12:34:18;;;;;;;;;;;31.70;30.70;;;;;;5072978;28;19916;-67
2021/06/08 12:36:45;;;;;;;;;;;31.60;30.60;;;;;;5072027;28;19924;-64
2021/06/08 12:39:12;;;;;;;;;;;31.40;30.60;;;;;;5072703;28;20253;-68
2021/06/08 12:41:38;;;;;;;;;;;31.10;30.40;;;;;;5072394;28;19924;-65
2021/06/08 12:44:03;;;;;;;;;;;30.80;30.60;;;;;;5072469;28;20058;-65
2021/06/08 12:46:37;;;;;;;;;;;30.70;30.60;;;;;;5071645;28;20003;-66
2021/06/08 12:49:05;;;;;;;;;;;30.40;30.40;;;;;;5072414;28;19927;-66
2021/06/08 12:51:32;;;;;;;;;;;30.10;30.50;;;;;;5072983;28;20376;-64
2021/06/08 12:53:57;;;;;;;;;;;29.70;30.60;;;;;;5072304;28;19913;-65
2021/06/08 12:56:23;;;;;;;;;;;29.40;30.80;;;;;;5071734;28;19927;-65
2021/06/08 12:58:49;;;;;;;;;;;29.20;31.10;;;;;;5072815;28;20292;-66
2021/06/08 13:01:15;;;;;;;;;;;28.90;31.00;;;;;;5059849;28;20296;-66
2021/06/08 13:03:41;;;;;;;;;;;28.70;31.40;;;;;;5050928;28;20342;-64
2021/06/08 13:06:09;;;;;;;;;;;28.50;31.30;;;;;;5050868;28;19940;-66
2021/06/08 13:08:35;;;;;;;;;;;28.30;31.70;;;;;;5051416;28;19916;-66
2021/06/08 13:11:01;;;;;;;;;;;28.10;31.70;;;;;;5051249;28;19917;-64
2021/06/08 13:13:31;;;;;;;;;;;28.00;31.80;;;;;;5051760;28;20024;-64
2021/06/08 13:15:57;;;;;;;;;;;27.90;31.80;;;;;;5052471;28;20312;-64
2021/06/08 13:18:23;;;;;;;;;;;27.80;31.80;;;;;;5051955;28;19921;-65
2021/06/08 13:20:56;;;;;;;;;;;27.70;31.80;;;;;;5052494;28;19924;-65
2021/06/08 13:23:22;;;;;;;;;;;27.50;31.80;;;;;;5052295;28;19975;-64
2021/06/08 13:25:58;;;;;;;;;;;27.30;31.90;;;;;;5051838;28;19916;-66
2021/06/08 13:28:43;;;;;;;;;;;27.10;32.20;;;;;;5052340;28;19963;-66
2021/06/08 13:31:10;;;;;;;;;;;27.10;32.80;;;;;;5050334;28;19952;-68
2021/06/08 13:33:38;;;;;;;;;;;27.10;33.00;;;;;;5050286;28;19917;-69
2021/06/08 13:36:24;;;;;;;;;;;27.10;33.00;;;;;;5031400;28;19947;-67
2021/06/08 13:38:50;;;;;;;;;;;27.00;32.80;;;;;;5052698;28;19925;-68
2021/06/08 13:41:15;;;;;;;;;;;26.90;32.80;;;;;;5052741;28;19917;-68
2021/06/08 13:43:45;;;;;;;;;;;26.80;32.60;;;;;;5053068;28;19917;-68
2021/06/08 13:46:12;;;;;;;;;;;26.70;32.60;;;;;;5053274;28;19917;-69
2021/06/08 13:48:40;;;;;;;;;;;26.70;33.00;;;;;;5052707;28;19921;-68
2021/06/08 13:51:13;;;;;;;;;;;26.70;33.20;;;;;;5053212;28;19924;-69
2021/06/08 13:53:39;;;;;;;;;;;26.60;33.00;;;;;;5052567;28;19923;-68
2021/06/08 13:56:35;;;;;;;;;;;26.50;33.30;;;;;;5053086;28;20004;-69
2021/06/08 14:01:49;;;;;;;;;;;26.40;32.90;;;;;;5052564;28;20000;-69
2021/06/08 14:04:19;;;;;;;;;;;26.30;33.10;;;;;;5052675;28;20003;-69
2021/06/08 14:06:49;;;;;;;;;;;26.30;33.10;;;;;;5052389;28;19917;-69
2021/06/08 14:09:16;;;;;;;;;;;26.30;33.20;;;;;;5052676;28;20246;-68
2021/06/08 14:11:43;;;;;;;;;;;26.30;33.10;;;;;;5052356;28;19947;-67
2021/06/08 14:14:12;;;;;;;;;;;26.30;33.40;;;;;;5052441;28;20434;-69
2021/06/08 14:16:39;;;;;;;;;;;26.40;33.50;;;;;;5052681;28;19917;-67
2021/06/08 14:19:04;;;;;;;;;;;26.30;33.20;;;;;;5052192;28;19921;-65
2021/06/08 14:21:30;;;;;;;;;;;26.30;33.10;;;;;;5052560;28;20381;-68
2021/06/08 14:23:57;;;;;;;;;;;26.20;33.00;;;;;;5052352;28;19917;-68
2021/06/08 14:26:27;;;;;;;;;;;26.20;33.20;;;;;;5050762;28;19940;-66
2021/06/08 14:28:53;;;;;;;;;;;26.20;33.20;;;;;;5052394;28;19916;-66
2021/06/08 14:31:19;;;;;;;;;;;26.10;33.00;;;;;;5051702;28;19917;-68
2021/06/08 14:33:44;;;;;;;;;;;26.10;33.20;;;;;;5052066;28;19917;-67
2021/06/08 14:36:10;;;;;;;;;;;26.00;33.30;;;;;;5051605;28;20324;-67
2021/06/08 14:38:36;;;;;;;;;;;26.00;33.60;;;;;;5049578;28;20004;-67
2021/06/08 14:41:03;;;;;;;;;;;26.00;33.70;;;;;;5049148;28;19992;-66
2021/06/08 14:43:28;;;;;;;;;;;26.00;33.70;;;;;;5048874;28;20366;-67
2021/06/08 14:45:54;;;;;;;;;;;26.00;33.50;;;;;;5051565;28;19923;-68
2021/06/08 14:48:20;;;;;;;;;;;26.00;33.60;;;;;;5051383;28;19920;-67
2021/06/08 14:50:46;;;;;;;;;;;26.00;33.80;;;;;;5051555;28;20380;-67
2021/06/08 14:53:11;;;;;;;;;;;26.00;33.80;;;;;;5051691;28;20317;-66
2021/06/08 14:55:37;;;;;;;;;;;26.10;34.00;;;;;;5053164;28;19960;-67
2021/06/08 14:58:03;;;;;;;;;;;26.10;34.00;;;;;;5051120;28;19921;-66
2021/06/08 15:00:29;;;;;;;;;;;26.10;34.10;;;;;;5052328;28;19942;-66
2021/06/08 15:02:55;;;;;;;;;;;26.10;34.20;;;;;;5050866;28;19924;-67
2021/06/08 15:05:25;;;;;;;;;;;26.10;34.20;;;;;;5051347;28;19967;-67
2021/06/08 15:07:50;;;;;;;;;;;26.10;34.40;;;;;;5051792;28;20369;-67
2021/06/08 15:10:16;;;;;;;;;;;26.10;34.50;;;;;;5050824;28;19917;-67